Time;durP1;ratioP1;P1;durP2;ratioP2;P2;SDS_P1;SDS_P2;PMS_P1;PMS_P2;Temp;Humidity;BMP_temperature;BMP_pressure;BME280_temperature;BME280_humidity;BME280_pressure;Samples;Min_cycle;Max_cycle;Signal;HPM_P1;HPM_P2
2023/04/18 00:02:35;;;;;;;23.60;13.25;;;;;8.10;96651.00;;;;8344077;28;20704;-73
2023/04/18 00:06:39;;;;;;;23.10;12.87;;;;;8.00;96641.00;;;;8346173;28;20287;-73
2023/04/18 00:10:44;;;;;;;24.57;12.53;;;;;8.00;96649.00;;;;8352304;28;20200;-73
2023/04/18 00:14:49;;;;;;;25.33;13.07;;;;;8.10;96649.00;;;;8346109;28;20215;-72
2023/04/18 00:18:52;;;;;;;19.70;10.87;;;;;8.10;96637.00;;;;8348802;28;20697;-72
2023/04/18 00:23:00;;;;;;;27.90;14.37;;;;;8.10;96646.00;;;;8339090;28;20221;-73
2023/04/18 00:27:05;;;;;;;26.57;14.30;;;;;8.10;96642.00;;;;8344884;28;20193;-72
2023/04/18 00:31:13;;;;;;;27.33;14.82;;;;;8.10;96641.00;;;;8316363;28;20198;-73
2023/04/18 00:35:16;;;;;;;29.43;14.53;;;;;8.10;96637.00;;;;8341064;28;20204;-72
2023/04/18 00:39:20;;;;;;;27.87;14.30;;;;;8.10;96638.00;;;;8335800;28;20231;-72
2023/04/18 00:43:24;;;;;;;24.87;12.80;;;;;8.10;96654.00;;;;8342857;28;20254;-72
2023/04/18 00:47:27;;;;;;;29.70;14.27;;;;;8.20;96642.00;;;;8341817;28;20201;-72
2023/04/18 00:51:30;;;;;;;28.93;14.10;;;;;8.10;96638.00;;;;8344605;28;20204;-74
2023/04/18 00:55:39;;;;;;;27.97;14.40;;;;;8.10;96645.00;;;;8335734;28;20239;-73
2023/04/18 00:59:43;;;;;;;28.03;14.87;;;;;8.10;96651.00;;;;8335663;28;20216;-72
2023/04/18 01:03:46;;;;;;;32.13;15.43;;;;;8.10;96652.00;;;;8360945;28;20652;-73
2023/04/18 01:07:57;;;;;;;31.90;15.70;;;;;8.20;96649.00;;;;8341416;28;20260;-72
2023/04/18 01:12:03;;;;;;;29.10;15.13;;;;;8.20;96645.00;;;;8348448;28;20224;-73
2023/04/18 01:16:06;;;;;;;29.30;14.45;;;;;8.20;96642.00;;;;8349335;28;20212;-73
2023/04/18 01:20:11;;;;;;;25.53;12.30;;;;;8.20;96640.00;;;;8356790;28;20216;-72
2023/04/18 01:24:18;;;;;;;30.67;16.00;;;;;8.20;96652.00;;;;8351412;28;20280;-72
2023/04/18 01:28:21;;;;;;;34.10;15.73;;;;;8.20;96637.00;;;;8351284;28;20262;-72
2023/04/18 01:32:27;;;;;;;31.47;16.17;;;;;8.20;96643.00;;;;8356431;28;20201;-72
2023/04/18 01:36:31;;;;;;;30.40;15.20;;;;;8.20;96647.00;;;;8351298;28;20207;-74
2023/04/18 01:40:37;;;;;;;33.50;15.70;;;;;8.20;96644.00;;;;8363802;28;20346;-73
2023/04/18 01:44:40;;;;;;;31.60;15.80;;;;;8.20;96647.00;;;;8353931;28;20229;-72
2023/04/18 01:48:44;;;;;;;36.93;16.83;;;;;8.10;96649.00;;;;8347737;28;20207;-72
2023/04/18 01:52:50;;;;;;;29.27;14.97;;;;;8.10;96637.00;;;;8353349;28;20201;-73
2023/04/18 01:56:54;;;;;;;36.97;17.53;;;;;8.10;96645.00;;;;8353623;28;20296;-74
2023/04/18 02:01:00;;;;;;;34.00;17.60;;;;;8.10;96638.00;;;;8354548;28;20200;-73
2023/04/18 02:05:03;;;;;;;27.67;13.47;;;;;8.00;96638.00;;;;8348235;28;20229;-73
2023/04/18 02:09:07;;;;;;;39.03;17.73;;;;;8.00;96633.00;;;;8355878;28;20280;-73
2023/04/18 02:13:11;;;;;;;39.80;17.60;;;;;8.00;96632.00;;;;8352291;28;20204;-72
2023/04/18 02:17:14;;;;;;;38.23;17.13;;;;;7.90;96642.00;;;;8327768;28;20776;-72
2023/04/18 02:21:18;;;;;;;42.73;17.67;;;;;7.80;96640.00;;;;8351608;28;20311;-72
2023/04/18 02:25:22;;;;;;;38.43;15.90;;;;;7.80;96647.00;;;;8355711;28;20220;-72
2023/04/18 02:29:29;;;;;;;34.15;16.00;;;;;7.90;96644.00;;;;8355946;28;20205;-72
2023/04/18 02:33:32;;;;;;;39.70;18.73;;;;;7.90;96645.00;;;;8352354;28;20193;-72
2023/04/18 02:37:36;;;;;;;33.67;14.53;;;;;7.80;96647.00;;;;8349877;28;20212;-73
2023/04/18 02:41:41;;;;;;;37.43;17.20;;;;;7.70;96649.00;;;;8354266;28;20258;-72
2023/04/18 02:45:55;;;;;;;36.90;16.30;;;;;7.70;96641.00;;;;8349185;28;20228;-73
2023/04/18 02:50:02;;;;;;;35.85;16.58;;;;;7.70;96642.00;;;;8355723;28;20189;-72
2023/04/18 02:54:05;;;;;;;38.87;18.10;;;;;7.70;96637.00;;;;8348444;28;20255;-72
2023/04/18 02:58:08;;;;;;;42.13;16.37;;;;;7.60;96638.00;;;;8340531;28;20197;-72
2023/04/18 03:02:13;;;;;;;41.93;18.93;;;;;7.60;96626.00;;;;8359024;22;20349;-73
2023/04/18 03:06:16;;;;;;;41.30;18.53;;;;;7.60;96628.00;;;;8314982;28;20225;-73
2023/04/18 03:10:19;;;;;;;40.67;16.77;;;;;7.50;96639.00;;;;8318695;28;20201;-73
2023/04/18 03:14:25;;;;;;;48.53;19.00;;;;;7.50;96645.00;;;;8323981;28;20377;-73
2023/04/18 03:18:30;;;;;;;44.53;19.47;;;;;7.50;96641.00;;;;8318428;28;20539;-71
2023/04/18 03:22:33;;;;;;;48.80;19.73;;;;;7.50;96643.00;;;;8315590;28;20193;-72
2023/04/18 03:26:36;;;;;;;39.00;16.00;;;;;7.50;96638.00;;;;8317839;28;20248;-73
2023/04/18 03:30:39;;;;;;;41.37;17.93;;;;;7.40;96644.00;;;;8325225;28;20198;-73
2023/04/18 03:34:44;;;;;;;53.70;22.00;;;;;7.40;96631.00;;;;8299287;28;20727;-72
2023/04/18 03:38:47;;;;;;;48.30;17.87;;;;;7.40;96641.00;;;;8318452;28;20205;-72
2023/04/18 03:42:52;;;;;;;46.73;18.33;;;;;7.40;96638.00;;;;8315486;28;20300;-72
2023/04/18 03:46:56;;;;;;;49.17;20.40;;;;;7.40;96635.00;;;;8314863;28;20225;-73
2023/04/18 03:51:05;;;;;;;50.77;19.20;;;;;7.40;96636.00;;;;8317156;28;20205;-71
2023/04/18 03:55:13;;;;;;;40.57;17.10;;;;;7.40;96645.00;;;;8317693;28;21214;-73
2023/04/18 03:59:22;;;;;;;40.47;18.67;;;;;7.50;96646.00;;;;8316661;28;20194;-72
2023/04/18 04:03:26;;;;;;;47.57;20.27;;;;;7.60;96649.00;;;;8312220;28;20233;-72
2023/04/18 04:07:31;;;;;;;54.63;21.40;;;;;7.60;96651.00;;;;8312554;28;20206;-72
2023/04/18 04:11:34;;;;;;;58.13;21.10;;;;;7.60;96655.00;;;;8306561;28;20758;-73
2023/04/18 04:15:38;;;;;;;58.43;19.47;;;;;7.50;96649.00;;;;8309552;28;20247;-72
2023/04/18 04:19:42;;;;;;;58.00;22.27;;;;;7.50;96654.00;;;;8306849;28;20236;-72
2023/04/18 04:23:52;;;;;;;46.03;16.73;;;;;7.40;96658.00;;;;8309133;28;20225;-72
2023/04/18 04:27:55;;;;;;;33.87;15.00;;;;;7.40;96667.00;;;;8315354;28;20563;-71
2023/04/18 04:31:59;;;;;;;41.30;15.67;;;;;7.40;96650.00;;;;8315344;28;20198;-74
2023/04/18 04:36:02;;;;;;;50.07;15.53;;;;;7.40;96656.00;;;;8313884;28;20719;-73
2023/04/18 04:40:08;;;;;;;58.10;19.93;;;;;7.50;96663.00;;;;8313641;28;20228;-72
2023/04/18 04:44:11;;;;;;;65.13;22.60;;;;;7.50;96659.00;;;;8312336;28;20221;-72
2023/04/18 04:48:24;;;;;;;54.53;18.83;;;;;7.50;96653.00;;;;8315026;28;20263;-73
2023/04/18 04:52:27;;;;;;;53.07;19.70;;;;;7.60;96662.00;;;;8291592;28;20193;-72
2023/04/18 04:56:32;;;;;;;54.57;21.90;;;;;7.60;96660.00;;;;8303394;28;20789;-73
2023/04/18 05:00:39;;;;;;;48.10;17.23;;;;;7.70;96667.00;;;;8316799;28;20206;-72
2023/04/18 05:04:45;;;;;;;56.00;19.97;;;;;7.70;96668.00;;;;8317217;28;20229;-72
2023/04/18 05:08:51;;;;;;;52.97;19.30;;;;;7.80;96666.00;;;;8312517;28;20239;-73
2023/04/18 05:12:58;;;;;;;55.53;19.13;;;;;7.90;96678.00;;;;8315968;28;20817;-74
2023/04/18 05:17:02;;;;;;;58.73;20.67;;;;;8.00;96666.00;;;;8315153;28;20197;-73
2023/04/18 05:21:06;;;;;;;63.03;22.23;;;;;8.10;96678.00;;;;8311107;28;20271;-71
2023/04/18 05:25:09;;;;;;;57.10;23.03;;;;;8.20;96681.00;;;;8317725;28;20225;-71
2023/04/18 05:29:16;;;;;;;73.23;22.07;;;;;8.30;96686.00;;;;8311302;28;20643;-73
2023/04/18 05:33:23;;;;;;;46.53;16.53;;;;;8.40;96705.00;;;;8315173;28;20256;-72
2023/04/18 05:37:27;;;;;;;41.30;15.93;;;;;8.40;96701.00;;;;8312072;28;20197;-72
2023/04/18 05:41:30;;;;;;;55.60;21.77;;;;;8.50;96699.00;;;;8300070;28;20198;-72
2023/04/18 05:45:35;;;;;;;53.90;18.60;;;;;8.50;96688.00;;;;8314010;28;20217;-73
2023/04/18 05:49:40;;;;;;;53.00;20.53;;;;;8.60;96680.00;;;;8316578;28;20204;-72
2023/04/18 05:53:43;;;;;;;56.53;22.47;;;;;8.70;96683.00;;;;8323144;28;20260;-73
2023/04/18 05:57:47;;;;;;;56.70;21.80;;;;;8.80;96680.00;;;;8316185;28;20217;-70
2023/04/18 06:01:55;;;;;;;60.63;20.25;;;;;9.00;96686.00;;;;8322480;28;20240;-72
2023/04/18 06:05:58;;;;;;;55.90;19.53;;;;;9.20;96696.00;;;;8322782;28;20252;-72
2023/04/18 06:10:04;;;;;;;47.33;19.00;;;;;9.20;96693.00;;;;8305922;28;20259;-72
2023/04/18 06:14:09;;;;;;;51.83;21.63;;;;;9.20;96691.00;;;;8320832;28;20603;-70
2023/04/18 06:18:14;;;;;;;41.72;17.65;;;;;9.10;96703.00;;;;8321789;28;20217;-70
2023/04/18 06:22:18;;;;;;;48.73;19.77;;;;;9.30;96702.00;;;;8321595;28;20693;-69
2023/04/18 06:26:25;;;;;;;44.57;18.17;;;;;9.30;96704.00;;;;8320135;28;20560;-69
2023/04/18 06:30:30;;;;;;;52.05;20.85;;;;;9.30;96707.00;;;;8324274;28;20227;-70
2023/04/18 06:34:37;;;;;;;52.88;20.98;;;;;9.40;96710.00;;;;8314733;28;20206;-72
2023/04/18 06:38:40;;;;;;;41.22;16.83;;;;;9.30;96718.00;;;;8319844;28;20202;-69
2023/04/18 06:42:46;;;;;;;49.75;20.70;;;;;9.40;96718.00;;;;8316799;28;20240;-70
2023/04/18 06:46:49;;;;;;;46.40;20.63;;;;;9.40;96722.00;;;;8321076;28;20858;-70
2023/04/18 06:50:54;;;;;;;48.90;20.67;;;;;9.40;96724.00;;;;8319789;28;20209;-69
2023/04/18 06:54:58;;;;;;;49.30;19.55;;;;;9.50;96732.00;;;;8315888;28;20193;-71
2023/04/18 06:59:01;;;;;;;43.25;18.63;;;;;9.50;96739.00;;;;8321897;28;20189;-71
2023/04/18 07:03:08;;;;;;;41.08;18.63;;;;;9.50;96735.00;;;;8321796;28;20796;-70
2023/04/18 07:07:14;;;;;;;45.17;21.15;;;;;9.50;96736.00;;;;8319132;28;20778;-70
2023/04/18 07:11:18;;;;;;;42.25;19.48;;;;;9.60;96733.00;;;;8319632;28;20202;-71
2023/04/18 07:15:21;;;;;;;43.97;19.33;;;;;9.50;96734.00;;;;8320488;28;20484;-70
2023/04/18 07:19:24;;;;;;;47.58;19.58;;;;;9.50;96734.00;;;;8325470;28;20209;-70
2023/04/18 07:23:30;;;;;;;42.40;19.80;;;;;9.50;96739.00;;;;8318120;28;20647;-70
2023/04/18 07:27:36;;;;;;;40.25;18.13;;;;;9.60;96736.00;;;;8303195;28;20225;-70
2023/04/18 07:31:44;;;;;;;38.30;18.75;;;;;9.70;96745.00;;;;8320818;28;20202;-70
2023/04/18 07:35:49;;;;;;;42.57;17.33;;;;;9.80;96744.00;;;;8309314;28;20212;-71
2023/04/18 07:39:59;;;;;;;41.97;18.98;;;;;9.80;96744.00;;;;8319869;28;20289;-71
2023/04/18 07:44:03;;;;;;;41.72;18.98;;;;;9.90;96739.00;;;;8315207;28;20195;-71
2023/04/18 07:48:06;;;;;;;43.85;20.40;;;;;10.00;96744.00;;;;8319829;28;20225;-70
2023/04/18 07:52:10;;;;;;;47.22;20.75;;;;;10.20;96736.00;;;;8317956;28;20280;-71
2023/04/18 07:56:16;;;;;;;39.03;17.60;;;;;10.40;96741.00;;;;8301968;28;20202;-71
2023/04/18 08:00:26;;;;;;;39.63;18.15;;;;;10.60;96747.00;;;;8316632;28;20197;-71
2023/04/18 08:04:29;;;;;;;37.60;19.40;;;;;10.80;96751.00;;;;8316545;28;20217;-70
2023/04/18 08:08:34;;;;;;;29.30;15.60;;;;;11.00;96749.00;;;;8317861;28;20233;-70
2023/04/18 08:12:42;;;;;;;33.13;18.48;;;;;10.90;96762.00;;;;8320411;28;20585;-71
2023/04/18 08:16:45;;;;;;;40.30;17.35;;;;;11.00;96758.00;;;;8312903;28;20201;-71
2023/04/18 08:20:50;;;;;;;36.08;18.60;;;;;11.10;96757.00;;;;8314136;28;20647;-70
2023/04/18 08:24:53;;;;;;;31.63;15.82;;;;;11.20;96752.00;;;;8317729;28;20768;-70
2023/04/18 08:29:08;;;;;;;32.60;17.60;;;;;11.30;96746.00;;;;8318393;28;20197;-70
2023/04/18 08:33:11;;;;;;;30.63;16.63;;;;;11.40;96754.00;;;;8315221;28;20203;-71
2023/04/18 08:37:14;;;;;;;33.78;16.92;;;;;11.40;96754.00;;;;8316413;28;20228;-70
2023/04/18 08:41:24;;;;;;;36.50;18.42;;;;;11.30;96764.00;;;;8315641;28;20202;-70
2023/04/18 08:45:32;;;;;;;38.35;18.92;;;;;11.30;96765.00;;;;8316453;28;20277;-70
2023/04/18 08:49:41;;;;;;;33.40;18.45;;;;;11.30;96775.00;;;;8314365;28;20226;-71
2023/04/18 08:53:47;;;;;;;35.45;18.35;;;;;11.30;96772.00;;;;8315762;28;20641;-70
2023/04/18 08:57:52;;;;;;;36.00;18.35;;;;;11.50;96778.00;;;;8324945;28;20212;-70
2023/04/18 09:02:02;;;;;;;39.90;18.63;;;;;11.60;96776.00;;;;8311566;28;20708;-71
2023/04/18 09:06:08;;;;;;;35.65;18.15;;;;;11.70;96786.00;;;;8314084;28;20857;-71
2023/04/18 09:10:16;;;;;;;35.95;18.77;;;;;11.80;96786.00;;;;8316097;28;20199;-70
2023/04/18 09:14:24;;;;;;;29.75;15.80;;;;;11.90;96786.00;;;;8314668;28;20206;-71
2023/04/18 09:18:31;;;;;;;31.48;16.67;;;;;12.00;96793.00;;;;8319839;28;20202;-71
2023/04/18 09:22:47;;;;;;;32.20;16.55;;;;;12.00;96784.00;;;;8323691;28;20247;-70
2023/04/18 09:26:54;;;;;;;28.98;15.57;;;;;12.00;96789.00;;;;8305361;28;20317;-71
2023/04/18 09:31:03;;;;;;;34.10;17.75;;;;;11.90;96798.00;;;;8305161;28;20199;-71
2023/04/18 09:35:08;;;;;;;29.35;15.30;;;;;11.80;96791.00;;;;8301741;28;20451;-71
2023/04/18 09:39:27;;;;;;;29.65;15.77;;;;;11.80;96792.00;;;;8321952;28;20209;-71
2023/04/18 09:43:30;;;;;;;29.67;15.13;;;;;11.70;96791.00;;;;8323571;28;20262;-70
2023/04/18 09:47:36;;;;;;;27.80;16.38;;;;;11.80;96794.00;;;;8322051;28;20574;-71
2023/04/18 09:51:45;;;;;;;25.35;14.60;;;;;11.90;96799.00;;;;8324755;28;20699;-71
2023/04/18 09:55:51;;;;;;;25.98;15.00;;;;;12.00;96795.00;;;;8321483;28;20205;-71
2023/04/18 10:00:07;;;;;;;26.73;15.40;;;;;12.20;96795.00;;;;8322650;28;20255;-71
2023/04/18 10:04:12;;;;;;;27.30;15.35;;;;;12.20;96796.00;;;;8322718;28;20316;-71
2023/04/18 10:08:18;;;;;;;24.48;14.45;;;;;12.30;96799.00;;;;8321899;28;20315;-70
2023/04/18 10:12:25;;;;;;;23.88;13.90;;;;;12.40;96792.00;;;;8321805;28;20528;-70
2023/04/18 10:16:29;;;;;;;26.80;15.52;;;;;12.40;96803.00;;;;8321856;28;20200;-71
2023/04/18 10:20:34;;;;;;;26.17;15.38;;;;;12.30;96795.00;;;;8321527;28;20764;-71
2023/04/18 10:24:51;;;;;;;26.15;14.60;;;;;12.40;96798.00;;;;8317819;28;20663;-70
2023/04/18 10:28:57;;;;;;;25.52;14.38;;;;;12.50;96789.00;;;;8321066;28;20243;-71
2023/04/18 10:33:31;;;;;;;24.85;14.48;;;;;12.40;96793.00;;;;8320257;28;20232;-71
2023/04/18 10:37:52;;;;;;;23.63;13.32;;;;;12.50;96800.00;;;;8324398;28;20720;-71
2023/04/18 10:41:57;;;;;;;23.48;13.45;;;;;12.60;96790.00;;;;8315311;28;20201;-71
2023/04/18 10:46:12;;;;;;;24.75;13.13;;;;;12.70;96785.00;;;;8319740;28;20274;-71
2023/04/18 10:50:34;;;;;;;23.45;13.27;;;;;12.80;96790.00;;;;8319672;28;20228;-71
2023/04/18 10:54:38;;;;;;;22.92;13.50;;;;;13.10;96778.00;;;;8320619;28;20205;-71
2023/04/18 10:58:49;;;;;;;21.77;13.52;;;;;13.30;96783.00;;;;8312861;28;20208;-71
2023/04/18 11:02:55;;;;;;;20.25;12.50;;;;;13.60;96788.00;;;;8315922;28;20268;-71
2023/04/18 11:07:02;;;;;;;19.55;11.82;;;;;13.70;96779.00;;;;8323888;28;20233;-71
2023/04/18 11:11:08;;;;;;;18.73;12.02;;;;;13.80;96776.00;;;;8321477;28;20220;-70
2023/04/18 11:15:16;;;;;;;16.67;11.38;;;;;14.30;96772.00;;;;8317687;28;20259;-71
2023/04/18 11:19:23;;;;;;;18.02;10.85;;;;;14.90;96774.00;;;;8302291;28;20197;-71
2023/04/18 11:23:27;;;;;;;18.77;11.43;;;;;15.40;96790.00;;;;8319613;28;20189;-71
2023/04/18 11:27:32;;;;;;;18.77;11.57;;;;;15.70;96763.00;;;;8320366;28;20236;-71
2023/04/18 11:31:36;;;;;;;16.75;11.13;;;;;15.90;96771.00;;;;8318917;28;20256;-71
2023/04/18 11:35:41;;;;;;;15.50;10.85;;;;;16.50;96771.00;;;;8317485;28;20209;-71
2023/04/18 11:39:48;;;;;;;19.75;10.85;;;;;16.60;96762.00;;;;8320274;28;20283;-71
2023/04/18 11:43:51;;;;;;;17.15;11.27;;;;;16.40;96765.00;;;;8316675;28;20276;-71
2023/04/18 11:47:57;;;;;;;18.67;11.23;;;;;16.20;96755.00;;;;8318209;28;20977;-71
2023/04/18 11:52:13;;;;;;;16.73;11.02;;;;;15.60;96757.00;;;;8302182;28;20624;-71
2023/04/18 11:56:16;;;;;;;16.77;11.55;;;;;15.30;96758.00;;;;8296375;28;20202;-71
2023/04/18 12:00:31;;;;;;;15.23;10.48;;;;;15.50;96750.00;;;;8319367;28;20288;-71
2023/04/18 12:04:54;;;;;;;15.30;9.27;;;;;15.70;96756.00;;;;8319160;28;20233;-71
2023/04/18 12:09:01;;;;;;;13.55;9.65;;;;;15.60;96735.00;;;;8320296;28;20243;-71
2023/04/18 12:13:10;;;;;;;16.48;11.07;;;;;15.50;96744.00;;;;8317108;28;20247;-71
2023/04/18 12:17:16;;;;;;;14.55;9.57;;;;;15.30;96751.00;;;;8321620;28;20202;-71
2023/04/18 12:21:21;;;;;;;12.35;8.57;;;;;15.50;96758.00;;;;8317555;28;20276;-71
2023/04/18 12:25:28;;;;;;;13.85;9.77;;;;;15.60;96758.00;;;;8316530;28;20260;-72
2023/04/18 12:29:31;;;;;;;16.50;9.70;;;;;16.10;96750.00;;;;8317742;28;20228;-71
2023/04/18 12:33:37;;;;;;;12.23;8.77;;;;;16.40;96746.00;;;;8317643;28;20205;-71
2023/04/18 12:37:42;;;;;;;13.07;9.57;;;;;16.20;96746.00;;;;8315137;28;20337;-71
2023/04/18 12:41:45;;;;;;;11.95;8.75;;;;;15.90;96746.00;;;;8318072;28;20288;-71
2023/04/18 12:45:54;;;;;;;14.90;10.05;;;;;15.60;96746.00;;;;8312394;28;20251;-71
2023/04/18 12:49:57;;;;;;;14.90;10.38;;;;;15.60;96745.00;;;;8317143;28;20294;-71
2023/04/18 12:54:03;;;;;;;13.20;9.00;;;;;15.70;96745.00;;;;8317545;28;20659;-72
2023/04/18 12:58:06;;;;;;;15.45;9.27;;;;;15.80;96742.00;;;;8303474;28;20283;-71
2023/04/18 13:02:11;;;;;;;13.73;8.75;;;;;15.90;96750.00;;;;8319419;28;20313;-71
2023/04/18 13:06:16;;;;;;;12.13;9.50;;;;;15.80;96748.00;;;;8321842;28;20199;-71
2023/04/18 13:10:23;;;;;;;11.80;7.97;;;;;15.50;96745.00;;;;8324142;28;20225;-72
2023/04/18 13:14:28;;;;;;;10.85;8.02;;;;;15.40;96748.00;;;;8328880;28;20201;-71
2023/04/18 13:18:32;;;;;;;11.20;6.75;;;;;15.40;96742.00;;;;8325614;28;20642;-71
2023/04/18 13:22:35;;;;;;;10.15;6.47;;;;;15.10;96750.00;;;;8321474;28;20224;-71
2023/04/18 13:26:39;;;;;;;12.30;7.75;;;;;15.20;96730.00;;;;8321845;28;20617;-71
2023/04/18 13:30:45;;;;;;;7.88;5.97;;;;;15.40;96736.00;;;;8323892;28;20263;-72
2023/04/18 13:34:49;;;;;;;9.63;7.15;;;;;15.50;96745.00;;;;8324249;28;20593;-71
2023/04/18 13:38:55;;;;;;;7.03;5.93;;;;;15.90;96729.00;;;;8322534;28;20797;-71
2023/04/18 13:43:06;;;;;;;9.30;6.72;;;;;16.00;96741.00;;;;8322884;28;20252;-72
2023/04/18 13:47:12;;;;;;;11.07;8.25;;;;;15.60;96736.00;;;;8322635;28;20271;-71
2023/04/18 13:51:16;;;;;;;11.13;8.02;;;;;15.30;96742.00;;;;8318082;28;20204;-72
2023/04/18 13:55:19;;;;;;;9.55;7.28;;;;;15.20;96740.00;;;;8323260;28;20693;-70
2023/04/18 13:59:34;;;;;;;10.07;7.18;;;;;15.10;96749.00;;;;8321543;28;20647;-72
2023/04/18 14:03:46;;;;;;;10.60;7.47;;;;;14.90;96745.00;;;;8315257;28;20240;-71
2023/04/18 14:07:50;;;;;;;10.95;7.72;;;;;15.10;96734.00;;;;8319171;28;20379;-71
2023/04/18 14:11:54;;;;;;;10.35;7.63;;;;;14.90;96742.00;;;;8321675;28;20221;-70
2023/04/18 14:15:59;;;;;;;9.48;6.70;;;;;14.70;96741.00;;;;8314143;28;20239;-71
2023/04/18 14:20:03;;;;;;;9.50;6.57;;;;;14.60;96753.00;;;;8321034;28;20284;-71
2023/04/18 14:24:08;;;;;;;8.02;6.13;;;;;14.50;96760.00;;;;8318964;28;20206;-70
2023/04/18 14:28:16;;;;;;;9.10;5.60;;;;;14.50;96759.00;;;;8300583;28;20240;-70
2023/04/18 14:32:20;;;;;;;7.30;6.18;;;;;14.40;96763.00;;;;8321675;28;20205;-70
2023/04/18 14:36:23;;;;;;;9.57;6.32;;;;;14.30;96759.00;;;;8320229;28;20261;-70
2023/04/18 14:40:27;;;;;;;7.47;6.22;;;;;14.10;96763.00;;;;8322331;28;20613;-70
2023/04/18 14:44:37;;;;;;;9.07;6.93;;;;;13.90;96763.00;;;;8319842;28;20288;-70
2023/04/18 14:48:46;;;;;;;10.00;6.22;;;;;13.70;96749.00;;;;8320530;28;20316;-70
2023/04/18 14:52:51;;;;;;;12.77;7.72;;;;;13.60;96754.00;;;;8312580;28;20289;-70
2023/04/18 14:56:58;;;;;;;9.52;6.40;;;;;13.60;96761.00;;;;8321074;28;20197;-70
2023/04/18 15:01:01;;;;;;;8.13;6.30;;;;;13.60;96758.00;;;;8313736;28;20198;-70
2023/04/18 15:05:07;;;;;;;10.98;6.82;;;;;13.50;96754.00;;;;8309272;28;20201;-70
2023/04/18 15:09:10;;;;;;;8.75;5.25;;;;;13.40;96764.00;;;;8311082;28;20849;-70
2023/04/18 15:13:14;;;;;;;6.00;5.18;;;;;13.40;96754.00;;;;8308893;28;20803;-71
2023/04/18 15:17:20;;;;;;;5.30;4.80;;;;;13.40;96757.00;;;;8311486;28;20236;-69
2023/04/18 15:21:26;;;;;;;6.65;5.20;;;;;13.40;96764.00;;;;8313459;28;20633;-70
2023/04/18 15:25:33;;;;;;;9.00;5.50;;;;;13.40;96764.00;;;;8317330;28;20220;-70
2023/04/18 15:29:37;;;;;;;5.78;4.95;;;;;13.40;96768.00;;;;8316418;28;20673;-71
2023/04/18 15:33:44;;;;;;;6.38;5.53;;;;;13.20;96776.00;;;;8318409;28;20208;-71
2023/04/18 15:37:50;;;;;;;6.97;5.20;;;;;13.20;96765.00;;;;8317425;28;20224;-71
2023/04/18 15:41:54;;;;;;;5.50;4.95;;;;;13.10;96775.00;;;;8318244;28;20205;-71
2023/04/18 15:45:57;;;;;;;6.68;5.53;;;;;13.00;96777.00;;;;8317305;28;20200;-71
2023/04/18 15:50:03;;;;;;;10.02;5.75;;;;;12.80;96765.00;;;;8315490;28;20627;-70
2023/04/18 15:54:08;;;;;;;10.63;7.13;;;;;12.70;96780.00;;;;8311174;28;20735;-71
2023/04/18 15:58:16;;;;;;;11.63;6.90;;;;;12.60;96779.00;;;;8316726;28;20220;-71
2023/04/18 16:02:22;;;;;;;13.45;7.10;;;;;12.50;96792.00;;;;8309248;28;20263;-71
2023/04/18 16:06:26;;;;;;;8.73;6.40;;;;;12.40;96795.00;;;;8310241;28;20228;-71
2023/04/18 16:10:30;;;;;;;8.45;6.65;;;;;12.40;96795.00;;;;8311007;28;20571;-71
2023/04/18 16:14:33;;;;;;;11.55;7.10;;;;;12.40;96798.00;;;;8308864;28;20196;-71
2023/04/18 16:18:36;;;;;;;10.35;7.18;;;;;12.40;96801.00;;;;8313241;28;20207;-71
2023/04/18 16:22:40;;;;;;;9.38;7.10;;;;;12.40;96793.00;;;;8314792;28;20291;-71
2023/04/18 16:26:48;;;;;;;7.93;6.47;;;;;12.50;96790.00;;;;8308602;28;20207;-71
2023/04/18 16:30:51;;;;;;;10.20;7.43;;;;;12.50;96800.00;;;;8311569;28;20568;-71
2023/04/18 16:34:57;;;;;;;23.75;14.70;;;;;12.50;96798.00;;;;8310715;28;20197;-70
2023/04/18 16:39:00;;;;;;;11.32;7.25;;;;;12.60;96801.00;;;;8317108;28;20850;-70
2023/04/18 16:43:07;;;;;;;9.25;6.88;;;;;12.50;96804.00;;;;8315078;28;20197;-70
2023/04/18 16:47:12;;;;;;;11.07;7.50;;;;;12.50;96803.00;;;;8315516;28;20657;-71
2023/04/18 16:51:15;;;;;;;11.93;6.80;;;;;12.40;96801.00;;;;8315725;28;20225;-70
2023/04/18 16:55:20;;;;;;;11.20;7.70;;;;;12.30;96796.00;;;;8315384;28;20195;-70
2023/04/18 16:59:27;;;;;;;10.90;7.45;;;;;12.30;96807.00;;;;8317161;28;20291;-70
2023/04/18 17:03:30;;;;;;;15.80;8.48;;;;;12.20;96803.00;;;;8310665;28;20257;-70
2023/04/18 17:07:33;;;;;;;13.93;7.90;;;;;12.20;96813.00;;;;8314210;28;20199;-71
2023/04/18 17:11:37;;;;;;;10.38;7.28;;;;;12.20;96811.00;;;;8315614;28;20232;-71
2023/04/18 17:15:43;;;;;;;13.02;8.15;;;;;12.20;96816.00;;;;8314151;28;20248;-74
2023/04/18 17:19:48;;;;;;;11.38;7.18;;;;;12.10;96820.00;;;;8316391;28;20228;-74
2023/04/18 17:23:53;;;;;;;10.15;7.30;;;;;12.10;96822.00;;;;8317405;28;20745;-75
2023/04/18 17:28:00;;;;;;;11.25;7.47;;;;;12.00;96827.00;;;;8316266;28;20673;-73
2023/04/18 17:32:05;;;;;;;10.20;6.50;;;;;11.90;96826.00;;;;8328049;28;20266;-74
2023/04/18 17:36:09;;;;;;;14.50;8.05;;;;;11.90;96831.00;;;;8320786;28;20567;-74
2023/04/18 17:40:14;;;;;;;13.63;8.02;;;;;11.80;96836.00;;;;8322782;28;20735;-74
2023/04/18 17:44:17;;;;;;;10.68;7.30;;;;;11.70;96829.00;;;;8318892;28;20768;-74
2023/04/18 17:48:22;;;;;;;11.68;7.13;;;;;11.70;96837.00;;;;8308122;28;20252;-74
2023/04/18 17:52:27;;;;;;;11.93;7.03;;;;;11.60;96847.00;;;;8324537;28;20195;-74
2023/04/18 17:56:32;;;;;;;11.73;6.85;;;;;11.50;96836.00;;;;8326155;28;20329;-74
2023/04/18 18:00:35;;;;;;;11.18;6.10;;;;;11.50;96839.00;;;;8324691;28;20213;-74
2023/04/18 18:04:40;;;;;;;11.43;7.97;;;;;11.40;96845.00;;;;8319668;28;20262;-74
2023/04/18 18:08:43;;;;;;;12.48;7.20;;;;;11.40;96837.00;;;;8322854;28;20618;-74
2023/04/18 18:12:46;;;;;;;10.57;7.47;;;;;11.30;96851.00;;;;8319106;28;20326;-74
2023/04/18 18:16:50;;;;;;;12.73;8.00;;;;;11.30;96846.00;;;;8320956;28;20635;-75
2023/04/18 18:20:55;;;;;;;13.68;9.05;;;;;11.30;96855.00;;;;8324176;28;20203;-75
2023/04/18 18:25:00;;;;;;;13.05;8.15;;;;;11.30;96859.00;;;;8323023;28;20242;-74
2023/04/18 18:29:09;;;;;;;12.32;7.30;;;;;11.30;96866.00;;;;8319720;28;20267;-74
2023/04/18 18:33:14;;;;;;;12.98;8.10;;;;;11.20;96863.00;;;;8321211;28;20193;-74
2023/04/18 18:37:24;;;;;;;12.82;7.97;;;;;11.20;96868.00;;;;8317061;28;20200;-73
2023/04/18 18:41:30;;;;;;;14.27;8.30;;;;;11.20;96875.00;;;;8321793;28;20199;-74
2023/04/18 18:45:35;;;;;;;13.23;7.72;;;;;11.10;96875.00;;;;8322273;28;20327;-73
2023/04/18 18:49:39;;;;;;;12.10;8.35;;;;;11.10;96874.00;;;;8316208;28;20607;-73
2023/04/18 18:53:47;;;;;;;13.73;7.85;;;;;11.10;96877.00;;;;8317163;28;20708;-74
2023/04/18 18:57:54;;;;;;;12.23;8.43;;;;;11.10;96882.00;;;;8328543;28;20209;-73
2023/04/18 19:02:00;;;;;;;13.27;8.75;;;;;11.00;96884.00;;;;8326673;28;20231;-76
2023/04/18 19:06:06;;;;;;;11.38;8.23;;;;;11.00;96888.00;;;;8317058;28;20229;-73
2023/04/18 19:10:12;;;;;;;11.52;7.90;;;;;11.00;96883.00;;;;8333134;28;20318;-73
2023/04/18 19:14:16;;;;;;;12.60;8.25;;;;;10.90;96888.00;;;;8324663;28;20204;-73
2023/04/18 19:18:26;;;;;;;12.48;8.55;;;;;10.90;96889.00;;;;8334316;28;20193;-74
2023/04/18 19:22:30;;;;;;;13.75;9.38;;;;;10.90;96889.00;;;;8329498;28;20195;-73
2023/04/18 19:26:35;;;;;;;12.75;8.00;;;;;10.90;96895.00;;;;8322417;28;20247;-74
2023/04/18 19:30:38;;;;;;;12.63;9.02;;;;;10.90;96895.00;;;;8331622;28;20225;-73
2023/04/18 19:34:45;;;;;;;14.50;8.65;;;;;10.90;96887.00;;;;8322690;28;20280;-73
2023/04/18 19:38:50;;;;;;;13.98;8.98;;;;;10.80;96889.00;;;;8318650;28;20264;-74
2023/04/18 19:42:58;;;;;;;12.02;8.63;;;;;10.80;96890.00;;;;8318866;28;20279;-74
2023/04/18 19:47:05;;;;;;;13.45;9.35;;;;;10.80;96899.00;;;;8316845;28;20261;-74
2023/04/18 19:51:09;;;;;;;20.20;10.23;;;;;10.80;96894.00;;;;8316548;28;20264;-73
2023/04/18 19:55:12;;;;;;;14.85;10.02;;;;;10.80;96884.00;;;;8323097;28;20220;-73
2023/04/18 19:59:24;;;;;;;13.50;9.43;;;;;10.80;96888.00;;;;8286300;28;20202;-73
2023/04/18 20:03:28;;;;;;;14.43;9.50;;;;;10.70;96887.00;;;;8312754;28;20962;-74
2023/04/18 20:07:35;;;;;;;13.38;9.23;;;;;10.70;96888.00;;;;8315776;28;20279;-74
2023/04/18 20:11:38;;;;;;;15.35;10.35;;;;;10.70;96890.00;;;;8315080;28;20223;-74